Авиационная погода в аэропорту Имени Алексея Леонова

Регион: 
Погода METAR: 
UNEE 282200Z 17002MPS CAVOK 13/11 Q1007 R23/CLRD60 NOSIG RMK QFE732
Время наблюдения
2022-06-28T22:00:00Z
Температура C
13.0
Точка росы
11.0
Направление ветра
170
Скорость ветра (узлы)
4
Метео видимость
6.21
Облачность
CAVOK
Нижняя граница облачности (футы)
Явления погоды
Условия полета
VFR
Аэропорт подробнее: